sensor_id;sensor_type;location;lat;lon;timestamp;pressure;altitude;pressure_sealevel;temperature;humidity
54948;BME280;41113;41.882;12.530;2023-01-31T00:01:27;101362.28;;;3.68;88.40
54948;BME280;41113;41.882;12.530;2023-01-31T00:03:59;101353.97;;;3.57;88.89
54948;BME280;41113;41.882;12.530;2023-01-31T00:06:28;101350.53;;;3.55;89.05
54948;BME280;41113;41.882;12.530;2023-01-31T00:08:55;101358.59;;;3.53;89.21
54948;BME280;41113;41.882;12.530;2023-01-31T00:11:27;101367.31;;;3.55;89.14
54948;BME280;41113;41.882;12.530;2023-01-31T00:13:54;101361.16;;;3.55;89.15
54948;BME280;41113;41.882;12.530;2023-01-31T00:16:21;101363.19;;;3.50;89.25
54948;BME280;41113;41.882;12.530;2023-01-31T00:18:47;101362.25;;;3.51;89.43
54948;BME280;41113;41.882;12.530;2023-01-31T00:21:13;101356.22;;;3.47;89.54
54948;BME280;41113;41.882;12.530;2023-01-31T00:23:43;101350.84;;;3.49;89.20
54948;BME280;41113;41.882;12.530;2023-01-31T00:28:43;101337.78;;;3.44;88.97
54948;BME280;41113;41.882;12.530;2023-01-31T00:31:10;101344.75;;;3.47;88.58
54948;BME280;41113;41.882;12.530;2023-01-31T00:33:37;101338.66;;;3.44;88.48
54948;BME280;41113;41.882;12.530;2023-01-31T00:36:07;101333.19;;;3.48;88.40
54948;BME280;41113;41.882;12.530;2023-01-31T00:38:34;101327.88;;;3.48;88.39
54948;BME280;41113;41.882;12.530;2023-01-31T00:41:00;101320.53;;;3.53;87.95
54948;BME280;41113;41.882;12.530;2023-01-31T00:43:25;101310.50;;;3.59;87.74
54948;BME280;41113;41.882;12.530;2023-01-31T00:45:51;101318.25;;;3.64;87.33
54948;BME280;41113;41.882;12.530;2023-01-31T00:48:17;101316.22;;;3.69;87.03
54948;BME280;41113;41.882;12.530;2023-01-31T00:50:42;101323.69;;;3.61;86.86
54948;BME280;41113;41.882;12.530;2023-01-31T00:53:08;101320.47;;;3.54;86.97
54948;BME280;41113;41.882;12.530;2023-01-31T00:55:34;101316.75;;;3.58;87.36
54948;BME280;41113;41.882;12.530;2023-01-31T00:57:59;101317.38;;;3.63;86.98
54948;BME280;41113;41.882;12.530;2023-01-31T01:00:25;101308.69;;;3.77;86.82
54948;BME280;41113;41.882;12.530;2023-01-31T01:02:50;101311.97;;;3.82;86.01
54948;BME280;41113;41.882;12.530;2023-01-31T01:05:16;101315.56;;;3.81;85.54
54948;BME280;41113;41.882;12.530;2023-01-31T01:07:45;101323.06;;;3.73;85.65
54948;BME280;41113;41.882;12.530;2023-01-31T01:10:11;101331.44;;;3.65;86.04
54948;BME280;41113;41.882;12.530;2023-01-31T01:12:36;101338.03;;;3.57;86.72
54948;BME280;41113;41.882;12.530;2023-01-31T01:15:02;101336.63;;;3.50;87.08
54948;BME280;41113;41.882;12.530;2023-01-31T01:17:28;101339.59;;;3.43;87.15
54948;BME280;41113;41.882;12.530;2023-01-31T01:19:53;101342.41;;;3.40;86.94
54948;BME280;41113;41.882;12.530;2023-01-31T01:22:19;101341.69;;;3.37;87.45
54948;BME280;41113;41.882;12.530;2023-01-31T01:24:45;101339.25;;;3.32;87.57
54948;BME280;41113;41.882;12.530;2023-01-31T01:27:11;101351.22;;;3.22;87.54
54948;BME280;41113;41.882;12.530;2023-01-31T01:29:38;101337.84;;;3.25;87.73
54948;BME280;41113;41.882;12.530;2023-01-31T01:32:04;101353.63;;;3.28;87.59
54948;BME280;41113;41.882;12.530;2023-01-31T01:34:30;101344.88;;;3.26;87.61
54948;BME280;41113;41.882;12.530;2023-01-31T01:36:56;101340.50;;;3.25;87.85
54948;BME280;41113;41.882;12.530;2023-01-31T01:39:21;101353.25;;;3.17;87.93
54948;BME280;41113;41.882;12.530;2023-01-31T01:41:47;101347.31;;;3.12;88.33
54948;BME280;41113;41.882;12.530;2023-01-31T01:50:41;101340.44;;;3.08;88.29
54948;BME280;41113;41.882;12.530;2023-01-31T01:53:15;101344.16;;;3.04;88.21
54948;BME280;41113;41.882;12.530;2023-01-31T01:55:49;101335.91;;;3.10;88.27
54948;BME280;41113;41.882;12.530;2023-01-31T02:00:58;101345.72;;;3.08;87.93
54948;BME280;41113;41.882;12.530;2023-01-31T02:03:24;101348.38;;;3.08;87.78
54948;BME280;41113;41.882;12.530;2023-01-31T02:05:55;101344.00;;;3.07;88.09
54948;BME280;41113;41.882;12.530;2023-01-31T02:08:33;101338.41;;;3.13;87.86
54948;BME280;41113;41.882;12.530;2023-01-31T02:13:44;101324.50;;;3.08;87.81
54948;BME280;41113;41.882;12.530;2023-01-31T02:16:16;101322.41;;;3.15;87.43
54948;BME280;41113;41.882;12.530;2023-01-31T02:18:42;101322.19;;;3.19;87.05
54948;BME280;41113;41.882;12.530;2023-01-31T02:21:41;101317.75;;;3.20;87.18
54948;BME280;41113;41.882;12.530;2023-01-31T02:27:07;101307.09;;;3.38;86.67
54948;BME280;41113;41.882;12.530;2023-01-31T02:35:33;101302.09;;;3.50;85.50
54948;BME280;41113;41.882;12.530;2023-01-31T02:43:37;101280.91;;;3.67;84.55
54948;BME280;41113;41.882;12.530;2023-01-31T02:46:36;101277.13;;;3.71;84.39
54948;BME280;41113;41.882;12.530;2023-01-31T02:49:22;101287.59;;;3.74;84.20
54948;BME280;41113;41.882;12.530;2023-01-31T02:55:11;101294.47;;;3.78;83.84
54948;BME280;41113;41.882;12.530;2023-01-31T02:57:59;101296.91;;;3.83;83.87
54948;BME280;41113;41.882;12.530;2023-01-31T03:00:32;101304.16;;;3.79;83.62
54948;BME280;41113;41.882;12.530;2023-01-31T03:02:58;101299.28;;;3.53;84.45
54948;BME280;41113;41.882;12.530;2023-01-31T03:05:24;101311.94;;;3.30;86.06
54948;BME280;41113;41.882;12.530;2023-01-31T03:07:57;101326.78;;;3.16;86.75
54948;BME280;41113;41.882;12.530;2023-01-31T03:10:38;101319.38;;;3.22;86.96
54948;BME280;41113;41.882;12.530;2023-01-31T03:13:43;101326.41;;;3.23;86.45
54948;BME280;41113;41.882;12.530;2023-01-31T03:16:24;101318.91;;;3.14;87.05
54948;BME280;41113;41.882;12.530;2023-01-31T03:19:24;101322.63;;;3.10;87.25
54948;BME280;41113;41.882;12.530;2023-01-31T03:21:55;101332.63;;;3.05;87.78
54948;BME280;41113;41.882;12.530;2023-01-31T03:24:22;101343.31;;;3.03;87.79
54948;BME280;41113;41.882;12.530;2023-01-31T03:26:51;101341.81;;;2.98;87.26
54948;BME280;41113;41.882;12.530;2023-01-31T03:29:18;101331.59;;;2.89;87.86
54948;BME280;41113;41.882;12.530;2023-01-31T03:31:59;101332.69;;;2.85;88.23
54948;BME280;41113;41.882;12.530;2023-01-31T03:34:27;101330.66;;;2.90;88.06
54948;BME280;41113;41.882;12.530;2023-01-31T03:36:57;101345.16;;;2.83;88.56
54948;BME280;41113;41.882;12.530;2023-01-31T03:42:05;101360.84;;;2.68;88.63
54948;BME280;41113;41.882;12.530;2023-01-31T03:47:26;101335.53;;;2.61;89.08
54948;BME280;41113;41.882;12.530;2023-01-31T03:49:55;101336.84;;;2.71;89.32
54948;BME280;41113;41.882;12.530;2023-01-31T03:52:29;101324.41;;;2.91;88.71
54948;BME280;41113;41.882;12.530;2023-01-31T03:55:02;101336.19;;;3.04;87.78
54948;BME280;41113;41.882;12.530;2023-01-31T03:57:34;101335.91;;;3.10;87.13
54948;BME280;41113;41.882;12.530;2023-01-31T04:00:04;101327.66;;;3.16;86.79
54948;BME280;41113;41.882;12.530;2023-01-31T04:02:36;101332.53;;;3.25;86.55
54948;BME280;41113;41.882;12.530;2023-01-31T04:07:27;101334.09;;;3.29;86.45
54948;BME280;41113;41.882;12.530;2023-01-31T04:09:53;101328.50;;;3.35;86.25
54948;BME280;41113;41.882;12.530;2023-01-31T04:12:18;101330.06;;;3.39;86.08
54948;BME280;41113;41.882;12.530;2023-01-31T04:14:44;101320.06;;;3.44;86.25
54948;BME280;41113;41.882;12.530;2023-01-31T04:17:10;101333.19;;;3.48;86.22
54948;BME280;41113;41.882;12.530;2023-01-31T04:19:35;101336.63;;;3.50;86.42
54948;BME280;41113;41.882;12.530;2023-01-31T04:22:01;101330.22;;;3.54;85.90
54948;BME280;41113;41.882;12.530;2023-01-31T04:24:26;101330.06;;;3.57;85.65
54948;BME280;41113;41.882;12.530;2023-01-31T04:26:52;101335.25;;;3.60;85.89
54948;BME280;41113;41.882;12.530;2023-01-31T04:29:17;101334.16;;;3.64;85.57
54948;BME280;41113;41.882;12.530;2023-01-31T04:31:46;101337.59;;;3.66;85.33
54948;BME280;41113;41.882;12.530;2023-01-31T04:34:11;101335.44;;;3.74;84.98
54948;BME280;41113;41.882;12.530;2023-01-31T04:36:37;101334.25;;;3.80;84.69
54948;BME280;41113;41.882;12.530;2023-01-31T04:39:03;101335.81;;;3.84;84.98
54948;BME280;41113;41.882;12.530;2023-01-31T04:41:28;101331.34;;;3.84;84.70
54948;BME280;41113;41.882;12.530;2023-01-31T04:43:54;101335.09;;;3.80;84.84
54948;BME280;41113;41.882;12.530;2023-01-31T04:46:20;101339.91;;;3.55;86.74
54948;BME280;41113;41.882;12.530;2023-01-31T04:48:45;101340.22;;;3.49;87.44
54948;BME280;41113;41.882;12.530;2023-01-31T04:51:11;101342.69;;;3.34;87.59
54948;BME280;41113;41.882;12.530;2023-01-31T04:53:36;101346.66;;;3.26;88.90
54948;BME280;41113;41.882;12.530;2023-01-31T04:56:02;101351.75;;;3.30;89.10
54948;BME280;41113;41.882;12.530;2023-01-31T04:58:29;101350.75;;;3.33;88.85
54948;BME280;41113;41.882;12.530;2023-01-31T05:00:54;101354.88;;;3.38;88.41
54948;BME280;41113;41.882;12.530;2023-01-31T05:03:20;101343.25;;;3.41;87.95
54948;BME280;41113;41.882;12.530;2023-01-31T05:05:49;101351.31;;;3.39;88.31
54948;BME280;41113;41.882;12.530;2023-01-31T05:08:15;101354.25;;;3.33;88.25
54948;BME280;41113;41.882;12.530;2023-01-31T05:10:41;101360.78;;;3.26;88.41
54948;BME280;41113;41.882;12.530;2023-01-31T05:13:08;101357.84;;;3.32;88.25
54948;BME280;41113;41.882;12.530;2023-01-31T05:15:34;101357.31;;;3.24;88.37
54948;BME280;41113;41.882;12.530;2023-01-31T05:18:00;101348.56;;;3.22;88.38
54948;BME280;41113;41.882;12.530;2023-01-31T05:20:30;101356.47;;;3.24;88.55
54948;BME280;41113;41.882;12.530;2023-01-31T05:22:58;101359.06;;;3.25;88.64
54948;BME280;41113;41.882;12.530;2023-01-31T05:25:24;101367.81;;;3.27;88.47
54948;BME280;41113;41.882;12.530;2023-01-31T05:27:51;101375.56;;;3.13;88.98
54948;BME280;41113;41.882;12.530;2023-01-31T05:30:28;101379.50;;;3.04;89.35
54948;BME280;41113;41.882;12.530;2023-01-31T05:32:56;101385.03;;;3.00;89.90
54948;BME280;41113;41.882;12.530;2023-01-31T05:35:22;101395.06;;;2.93;89.93
54948;BME280;41113;41.882;12.530;2023-01-31T05:37:47;101394.78;;;2.99;90.23
54948;BME280;41113;41.882;12.530;2023-01-31T05:40:15;101393.94;;;2.99;89.89
54948;BME280;41113;41.882;12.530;2023-01-31T05:42:41;101396.66;;;2.97;89.71
54948;BME280;41113;41.882;12.530;2023-01-31T05:45:08;101397.66;;;2.95;89.63
54948;BME280;41113;41.882;12.530;2023-01-31T05:47:34;101392.34;;;2.95;89.42
54948;BME280;41113;41.882;12.530;2023-01-31T05:50:00;101382.78;;;2.91;89.40
54948;BME280;41113;41.882;12.530;2023-01-31T05:52:26;101386.38;;;2.90;89.18
54948;BME280;41113;41.882;12.530;2023-01-31T05:54:52;101385.72;;;2.85;90.22
54948;BME280;41113;41.882;12.530;2023-01-31T05:57:17;101403.22;;;2.89;90.07
54948;BME280;41113;41.882;12.530;2023-01-31T05:59:43;101397.66;;;2.95;89.96
54948;BME280;41113;41.882;12.530;2023-01-31T06:02:08;101404.75;;;2.94;89.45
54948;BME280;41113;41.882;12.530;2023-01-31T06:04:41;101417.41;;;2.88;90.01
54948;BME280;41113;41.882;12.530;2023-01-31T06:07:07;101410.81;;;2.77;90.05
54948;BME280;41113;41.882;12.530;2023-01-31T06:09:32;101414.25;;;2.79;90.30
54948;BME280;41113;41.882;12.530;2023-01-31T06:11:58;101415.69;;;2.87;90.25
54948;BME280;41113;41.882;12.530;2023-01-31T06:14:23;101417.56;;;2.85;90.03
54948;BME280;41113;41.882;12.530;2023-01-31T06:16:49;101426.59;;;2.80;90.61
54948;BME280;41113;41.882;12.530;2023-01-31T06:19:14;101433.63;;;2.81;90.75
54948;BME280;41113;41.882;12.530;2023-01-31T06:21:40;101433.41;;;2.86;90.77
54948;BME280;41113;41.882;12.530;2023-01-31T06:24:06;101433.09;;;2.94;90.22
54948;BME280;41113;41.882;12.530;2023-01-31T06:26:31;101434.16;;;3.08;90.07
54948;BME280;41113;41.882;12.530;2023-01-31T06:28:56;101443.28;;;3.22;89.25
54948;BME280;41113;41.882;12.530;2023-01-31T06:31:23;101460.06;;;3.22;88.61
54948;BME280;41113;41.882;12.530;2023-01-31T06:33:49;101454.63;;;3.25;88.74
54948;BME280;41113;41.882;12.530;2023-01-31T06:36:15;101463.38;;;3.27;88.19
54948;BME280;41113;41.882;12.530;2023-01-31T06:38:41;101477.59;;;3.26;87.66
54948;BME280;41113;41.882;12.530;2023-01-31T06:41:06;101474.69;;;3.12;88.62
54948;BME280;41113;41.882;12.530;2023-01-31T06:43:32;101475.63;;;3.11;88.32
54948;BME280;41113;41.882;12.530;2023-01-31T06:45:57;101468.31;;;3.16;88.43
54948;BME280;41113;41.882;12.530;2023-01-31T06:48:22;101475.25;;;3.19;88.75
54948;BME280;41113;41.882;12.530;2023-01-31T06:50:48;101478.31;;;3.30;88.25
54948;BME280;41113;41.882;12.530;2023-01-31T06:53:13;101489.00;;;3.28;87.87
54948;BME280;41113;41.882;12.530;2023-01-31T06:55:38;101491.50;;;3.31;87.58
54948;BME280;41113;41.882;12.530;2023-01-31T06:58:04;101493.53;;;3.26;87.48
54948;BME280;41113;41.882;12.530;2023-01-31T07:00:29;101502.66;;;3.19;87.97
54948;BME280;41113;41.882;12.530;2023-01-31T07:02:55;101501.09;;;3.15;87.81
54948;BME280;41113;41.882;12.530;2023-01-31T07:05:21;101505.81;;;3.08;88.37
54948;BME280;41113;41.882;12.530;2023-01-31T07:07:47;101507.59;;;3.08;88.48
54948;BME280;41113;41.882;12.530;2023-01-31T07:10:15;101515.56;;;3.08;89.08
54948;BME280;41113;41.882;12.530;2023-01-31T07:12:41;101513.41;;;3.16;88.46
54948;BME280;41113;41.882;12.530;2023-01-31T07:15:08;101525.75;;;3.17;88.60
54948;BME280;41113;41.882;12.530;2023-01-31T07:17:34;101534.66;;;3.16;88.74
54948;BME280;41113;41.882;12.530;2023-01-31T07:19:59;101538.09;;;3.18;88.43
54948;BME280;41113;41.882;12.530;2023-01-31T07:22:25;101542.63;;;3.16;89.03
54948;BME280;41113;41.882;12.530;2023-01-31T07:24:50;101560.91;;;3.22;88.95
54948;BME280;41113;41.882;12.530;2023-01-31T07:27:16;101542.88;;;3.30;88.87
54948;BME280;41113;41.882;12.530;2023-01-31T07:29:42;101537.16;;;3.39;89.06
54948;BME280;41113;41.882;12.530;2023-01-31T07:32:08;101543.47;;;3.56;87.98
54948;BME280;41113;41.882;12.530;2023-01-31T07:34:33;101542.91;;;3.68;87.75
54948;BME280;41113;41.882;12.530;2023-01-31T07:36:58;101559.28;;;3.78;87.35
54948;BME280;41113;41.882;12.530;2023-01-31T07:39:25;101570.34;;;3.87;86.70
54948;BME280;41113;41.882;12.530;2023-01-31T07:41:50;101580.56;;;3.96;86.25
54948;BME280;41113;41.882;12.530;2023-01-31T07:44:16;101574.88;;;4.04;86.13
54948;BME280;41113;41.882;12.530;2023-01-31T07:46:41;101571.91;;;4.10;85.57
54948;BME280;41113;41.882;12.530;2023-01-31T07:49:10;101586.56;;;4.19;85.37
54948;BME280;41113;41.882;12.530;2023-01-31T07:51:36;101591.59;;;4.25;85.14
54948;BME280;41113;41.882;12.530;2023-01-31T07:54:04;101582.25;;;4.35;84.97
54948;BME280;41113;41.882;12.530;2023-01-31T07:56:30;101588.13;;;4.42;84.46
54948;BME280;41113;41.882;12.530;2023-01-31T07:58:55;101591.25;;;4.50;84.57
54948;BME280;41113;41.882;12.530;2023-01-31T08:01:24;101590.13;;;4.55;83.64
54948;BME280;41113;41.882;12.530;2023-01-31T08:04:11;101596.63;;;4.67;83.64
54948;BME280;41113;41.882;12.530;2023-01-31T08:06:38;101612.91;;;4.78;83.20
54948;BME280;41113;41.882;12.530;2023-01-31T08:09:04;101615.16;;;4.86;82.29
54948;BME280;41113;41.882;12.530;2023-01-31T08:11:29;101618.50;;;4.91;81.67
54948;BME280;41113;41.882;12.530;2023-01-31T08:13:55;101629.59;;;4.99;81.60
54948;BME280;41113;41.882;12.530;2023-01-31T08:16:20;101636.34;;;5.06;80.99
54948;BME280;41113;41.882;12.530;2023-01-31T08:18:50;101646.13;;;5.06;80.50
54948;BME280;41113;41.882;12.530;2023-01-31T08:21:17;101654.25;;;5.03;80.36
54948;BME280;41113;41.882;12.530;2023-01-31T08:23:43;101657.00;;;5.01;79.86
54948;BME280;41113;41.882;12.530;2023-01-31T08:26:15;101661.31;;;5.04;79.24
54948;BME280;41113;41.882;12.530;2023-01-31T08:28:41;101661.84;;;5.10;79.60
54948;BME280;41113;41.882;12.530;2023-01-31T08:31:12;101672.00;;;5.21;79.17
54948;BME280;41113;41.882;12.530;2023-01-31T08:33:38;101675.19;;;5.27;79.29
54948;BME280;41113;41.882;12.530;2023-01-31T08:36:18;101676.28;;;5.41;79.23
54948;BME280;41113;41.882;12.530;2023-01-31T08:38:45;101689.19;;;5.48;78.35
54948;BME280;41113;41.882;12.530;2023-01-31T08:41:11;101681.00;;;5.53;78.08
54948;BME280;41113;41.882;12.530;2023-01-31T08:43:37;101682.22;;;5.63;77.97
54948;BME280;41113;41.882;12.530;2023-01-31T08:46:03;101685.97;;;5.93;77.74
54948;BME280;41113;41.882;12.530;2023-01-31T08:48:34;101681.59;;;5.92;76.09
54948;BME280;41113;41.882;12.530;2023-01-31T08:51:02;101687.84;;;5.91;75.60
54948;BME280;41113;41.882;12.530;2023-01-31T08:53:29;101687.69;;;5.95;74.95
54948;BME280;41113;41.882;12.530;2023-01-31T08:56:03;101688.31;;;6.00;75.30
54948;BME280;41113;41.882;12.530;2023-01-31T08:58:34;101685.47;;;6.03;74.58
54948;BME280;41113;41.882;12.530;2023-01-31T09:01:08;101685.03;;;6.10;75.30
54948;BME280;41113;41.882;12.530;2023-01-31T09:03:34;101690.69;;;6.21;75.09
54948;BME280;41113;41.882;12.530;2023-01-31T09:06:01;101687.75;;;6.26;74.53
54948;BME280;41113;41.882;12.530;2023-01-31T09:08:28;101686.03;;;6.25;75.02
54948;BME280;41113;41.882;12.530;2023-01-31T09:10:55;101693.53;;;6.34;75.57
54948;BME280;41113;41.882;12.530;2023-01-31T09:13:21;101695.69;;;6.43;75.19
54948;BME280;41113;41.882;12.530;2023-01-31T09:15:56;101700.59;;;6.51;75.00
54948;BME280;41113;41.882;12.530;2023-01-31T09:18:21;101708.28;;;6.57;74.67
54948;BME280;41113;41.882;12.530;2023-01-31T09:20:47;101706.72;;;6.69;74.66
54948;BME280;41113;41.882;12.530;2023-01-31T09:23:12;101707.91;;;6.79;74.52
54948;BME280;41113;41.882;12.530;2023-01-31T09:25:37;101723.25;;;6.91;74.33
54948;BME280;41113;41.882;12.530;2023-01-31T09:28:03;101727.19;;;7.00;74.17
54948;BME280;41113;41.882;12.530;2023-01-31T09:30:28;101724.34;;;7.18;74.23
54948;BME280;41113;41.882;12.530;2023-01-31T09:32:54;101735.44;;;7.27;72.77
54948;BME280;41113;41.882;12.530;2023-01-31T09:35:19;101733.84;;;7.38;72.53
54948;BME280;41113;41.882;12.530;2023-01-31T09:37:45;101732.31;;;7.64;72.78
54948;BME280;41113;41.882;12.530;2023-01-31T09:40:18;101733.69;;;7.86;72.12
54948;BME280;41113;41.882;12.530;2023-01-31T09:42:46;101739.34;;;7.95;72.01
54948;BME280;41113;41.882;12.530;2023-01-31T09:45:15;101746.31;;;8.12;71.00
54948;BME280;41113;41.882;12.530;2023-01-31T09:47:49;101736.50;;;8.27;70.08
54948;BME280;41113;41.882;12.530;2023-01-31T09:50:33;101745.03;;;8.33;70.52
54948;BME280;41113;41.882;12.530;2023-01-31T09:53:00;101740.03;;;8.27;69.61
54948;BME280;41113;41.882;12.530;2023-01-31T09:55:49;101743.47;;;8.43;68.95
54948;BME280;41113;41.882;12.530;2023-01-31T10:08:38;101741.72;;;8.85;66.61
54948;BME280;41113;41.882;12.530;2023-01-31T10:11:10;101739.59;;;8.90;66.43
54948;BME280;41113;41.882;12.530;2023-01-31T10:13:46;101742.41;;;9.01;66.82
54948;BME280;41113;41.882;12.530;2023-01-31T10:18:49;101737.34;;;9.11;64.01
54948;BME280;41113;41.882;12.530;2023-01-31T10:21:20;101737.25;;;9.13;63.47
54948;BME280;41113;41.882;12.530;2023-01-31T10:23:47;101744.66;;;9.22;62.59
54948;BME280;41113;41.882;12.530;2023-01-31T10:26:33;101745.09;;;9.28;63.15
54948;BME280;41113;41.882;12.530;2023-01-31T10:29:20;101736.72;;;9.47;64.40
54948;BME280;41113;41.882;12.530;2023-01-31T10:31:56;101735.75;;;9.48;63.41
54948;BME280;41113;41.882;12.530;2023-01-31T10:37:11;101733.59;;;9.53;61.83
54948;BME280;41113;41.882;12.530;2023-01-31T10:39:49;101737.91;;;9.68;62.94
54948;BME280;41113;41.882;12.530;2023-01-31T10:47:54;101721.63;;;9.97;59.99
54948;BME280;41113;41.882;12.530;2023-01-31T10:53:15;101715.53;;;10.20;60.48
54948;BME280;41113;41.882;12.530;2023-01-31T10:56:04;101710.81;;;10.24;61.62
54948;BME280;41113;41.882;12.530;2023-01-31T10:58:30;101707.06;;;10.26;61.96
54948;BME280;41113;41.882;12.530;2023-01-31T11:00:57;101708.03;;;10.25;60.20
54948;BME280;41113;41.882;12.530;2023-01-31T11:03:23;101699.09;;;10.25;56.45
54948;BME280;41113;41.882;12.530;2023-01-31T11:05:51;101703.69;;;10.36;60.35
54948;BME280;41113;41.882;12.530;2023-01-31T11:08:35;101695.88;;;10.45;60.00
54948;BME280;41113;41.882;12.530;2023-01-31T11:11:10;101698.72;;;10.55;60.99
54948;BME280;41113;41.882;12.530;2023-01-31T11:13:38;101698.16;;;10.63;61.33
54948;BME280;41113;41.882;12.530;2023-01-31T11:16:07;101692.69;;;10.64;60.96
54948;BME280;41113;41.882;12.530;2023-01-31T11:18:45;101689.03;;;10.65;60.83
54948;BME280;41113;41.882;12.530;2023-01-31T11:21:19;101679.88;;;10.68;60.46
54948;BME280;41113;41.882;12.530;2023-01-31T11:23:45;101684.28;;;10.69;60.65
54948;BME280;41113;41.882;12.530;2023-01-31T11:26:11;101680.31;;;10.74;60.90
54948;BME280;41113;41.882;12.530;2023-01-31T11:28:40;101677.41;;;10.77;60.89
54948;BME280;41113;41.882;12.530;2023-01-31T11:31:18;101684.25;;;10.81;60.74
54948;BME280;41113;41.882;12.530;2023-01-31T11:33:54;101683.91;;;10.86;60.36
54948;BME280;41113;41.882;12.530;2023-01-31T11:36:20;101681.09;;;10.87;60.04
54948;BME280;41113;41.882;12.530;2023-01-31T11:38:50;101677.22;;;10.91;60.22
54948;BME280;41113;41.882;12.530;2023-01-31T11:41:36;101673.78;;;10.89;59.51
54948;BME280;41113;41.882;12.530;2023-01-31T11:44:21;101669.03;;;10.93;58.99
54948;BME280;41113;41.882;12.530;2023-01-31T11:46:56;101666.25;;;10.95;58.03
54948;BME280;41113;41.882;12.530;2023-01-31T11:51:53;101658.19;;;10.95;58.99
54948;BME280;41113;41.882;12.530;2023-01-31T11:54:23;101657.19;;;10.96;59.25
54948;BME280;41113;41.882;12.530;2023-01-31T11:56:49;101657.09;;;10.97;59.09
54948;BME280;41113;41.882;12.530;2023-01-31T11:59:19;101657.19;;;10.96;59.06
54948;BME280;41113;41.882;12.530;2023-01-31T12:01:48;101657.78;;;10.88;55.68
54948;BME280;41113;41.882;12.530;2023-01-31T12:04:23;101657.91;;;10.86;55.56
54948;BME280;41113;41.882;12.530;2023-01-31T12:07:02;101660.59;;;10.86;56.21
54948;BME280;41113;41.882;12.530;2023-01-31T12:09:38;101659.59;;;10.87;56.51
54948;BME280;41113;41.882;12.530;2023-01-31T12:12:20;101658.88;;;10.85;49.56
54948;BME280;41113;41.882;12.530;2023-01-31T12:14:47;101661.31;;;10.88;54.58
54948;BME280;41113;41.882;12.530;2023-01-31T12:17:14;101661.56;;;10.85;54.51
54948;BME280;41113;41.882;12.530;2023-01-31T12:22:25;101651.91;;;10.83;51.75
54948;BME280;41113;41.882;12.530;2023-01-31T12:28:30;101646.75;;;10.80;47.68
54948;BME280;41113;41.882;12.530;2023-01-31T12:44:46;101636.63;;;10.83;44.93
54948;BME280;41113;41.882;12.530;2023-01-31T12:47:42;101629.31;;;10.85;49.86
54948;BME280;41113;41.882;12.530;2023-01-31T12:50:46;101633.72;;;10.86;51.91
54948;BME280;41113;41.882;12.530;2023-01-31T12:56:11;101632.09;;;10.84;48.83
54948;BME280;41113;41.882;12.530;2023-01-31T13:01:45;101622.00;;;10.87;48.29
54948;BME280;41113;41.882;12.530;2023-01-31T13:06:52;101611.69;;;10.81;48.63
54948;BME280;41113;41.882;12.530;2023-01-31T13:09:23;101624.16;;;10.82;49.15
54948;BME280;41113;41.882;12.530;2023-01-31T13:12:17;101614.38;;;10.81;45.33
54948;BME280;41113;41.882;12.530;2023-01-31T13:14:57;101618.78;;;10.82;46.40
54948;BME280;41113;41.882;12.530;2023-01-31T13:17:29;101619.28;;;10.87;46.30
54948;BME280;41113;41.882;12.530;2023-01-31T13:20:27;101618.69;;;10.84;43.34
54948;BME280;41113;41.882;12.530;2023-01-31T13:22:58;101618.56;;;10.85;45.97
54948;BME280;41113;41.882;12.530;2023-01-31T13:28:34;101626.16;;;10.91;45.09
54948;BME280;41113;41.882;12.530;2023-01-31T13:31:10;101625.19;;;10.93;44.40
54948;BME280;41113;41.882;12.530;2023-01-31T13:34:00;101628.09;;;10.89;42.77
54948;BME280;41113;41.882;12.530;2023-01-31T13:41:59;101625.66;;;10.86;44.17
54948;BME280;41113;41.882;12.530;2023-01-31T13:44:25;101639.19;;;10.85;44.60
54948;BME280;41113;41.882;12.530;2023-01-31T13:46:57;101627.81;;;10.81;43.26
54948;BME280;41113;41.882;12.530;2023-01-31T13:49:31;101633.44;;;10.78;43.68
54948;BME280;41113;41.882;12.530;2023-01-31T13:52:03;101631.50;;;10.80;43.45
54948;BME280;41113;41.882;12.530;2023-01-31T13:54:34;101629.16;;;10.76;43.59
54948;BME280;41113;41.882;12.530;2023-01-31T13:57:02;101633.66;;;10.75;43.59
54948;BME280;41113;41.882;12.530;2023-01-31T13:59:31;101637.94;;;10.78;43.22
54948;BME280;41113;41.882;12.530;2023-01-31T14:02:00;101634.28;;;10.79;43.17
54948;BME280;41113;41.882;12.530;2023-01-31T14:04:32;101636.75;;;10.82;42.55
54948;BME280;41113;41.882;12.530;2023-01-31T14:09:35;101639.44;;;10.82;43.12
54948;BME280;41113;41.882;12.530;2023-01-31T14:14:43;101643.31;;;10.78;42.34
54948;BME280;41113;41.882;12.530;2023-01-31T14:22:33;101642.91;;;10.71;41.70
54948;BME280;41113;41.882;12.530;2023-01-31T14:30:40;101643.97;;;10.69;40.61
54948;BME280;41113;41.882;12.530;2023-01-31T14:33:14;101643.44;;;10.76;41.32
54948;BME280;41113;41.882;12.530;2023-01-31T14:36:17;101640.63;;;10.78;36.71
54948;BME280;41113;41.882;12.530;2023-01-31T14:42:18;101656.13;;;10.74;42.14
54948;BME280;41113;41.882;12.530;2023-01-31T14:53:24;101672.16;;;10.63;45.22
54948;BME280;41113;41.882;12.530;2023-01-31T14:58:52;101681.41;;;10.59;47.42
54948;BME280;41113;41.882;12.530;2023-01-31T15:01:20;101684.22;;;10.57;48.07
54948;BME280;41113;41.882;12.530;2023-01-31T15:03:53;101686.28;;;10.54;48.08
54948;BME280;41113;41.882;12.530;2023-01-31T15:06:25;101687.47;;;10.50;48.49
54948;BME280;41113;41.882;12.530;2023-01-31T15:11:47;101697.06;;;10.41;49.65
54948;BME280;41113;41.882;12.530;2023-01-31T15:16:57;101703.94;;;10.33;50.20
54948;BME280;41113;41.882;12.530;2023-01-31T15:19:24;101705.63;;;10.34;50.49
54948;BME280;41113;41.882;12.530;2023-01-31T15:21:58;101710.25;;;10.32;51.04